Portada
METAR-TAF:

METAR-TAF

Aeroports :

Diego Garcia, Territori Britànic de l'Oceà Índic

latitud: 07-18S, longitud: 072-24E, altitud: 1 m

Observació

L'informe es va fer fa 41 minuts, a les 01:55 UTC
Vent 9 kt del Oest
Temperatura 28°C
Humitat 79%
Pressió 1012 hPa
Visibilitat 10 km o més
Escasses núvols a una alçada de 2000 ft
Cel ennuvolat a una alçada de 25000 ft

METAR: FJDG 060155Z 28009KT 9999 FEW020 BKN250 28/24 A2987 RMK SLP112 T02820242

Hora: 08:36 (02:36 UTC)

Pronòstic

L'informe es va fer fa 1 hora i 36 minuts, a les 01:00 UTC
Pronòstic vàlid del 06 a les 01 UTC al 07 a les 07 UTC
Vent 15 kt del Oest/Nord-Oest
Visibilitat 10 km o més
Escasses núvols a una alçada de 2200 ft
Núvols disperses a una alçada de 25000 ft

TAF: FJDG 060100Z 0601/0707 30015KT 9999 FEW022 SCT250 QNH2976INS TX33/0608Z TN27/0622Z

Observacions i pronòstics meteorològics de més de 4000 aeroports (METAR i TAF).

Les estacions disponibles són els punts grocs i vermells al mapa.

Posi el ratolí al punt desitjat per veure el nom de l'estació.

Feu clic per veure les observacions i els pronòstics meteorològics.

Per canviar el mapa: feu clic els botons verds amb una creu de color negre per apropar; al botó verd amb un guió per allunyar la imatge; o en les fletxes verdes per a mapes adjacents.


METAR-TAF: